createdAt,value
2019-01-15T00:00:42.369Z,101051.53
2019-01-15T00:03:10.809Z,101054.36
2019-01-15T00:05:39.286Z,101048.44
2019-01-15T00:08:07.763Z,101052.88
2019-01-15T00:10:36.372Z,101058.47
2019-01-15T00:13:04.927Z,101059.61
2019-01-15T00:15:33.320Z,101054.16
2019-01-15T00:18:01.859Z,101055.85
2019-01-15T00:20:30.281Z,101062.62
2019-01-15T00:22:58.746Z,101056.41
2019-01-15T00:25:27.155Z,101062.33
2019-01-15T00:27:55.568Z,101058.86
2019-01-15T00:30:24.006Z,101054.81
2019-01-15T00:32:52.421Z,101062.59
2019-01-15T00:35:20.867Z,101062.22
2019-01-15T00:37:49.323Z,101065.22
2019-01-15T00:40:18.372Z,101074.96
2019-01-15T00:42:46.851Z,101065.05
2019-01-15T00:45:15.641Z,101074.32
2019-01-15T00:47:44.062Z,101085.46
2019-01-15T00:50:15.273Z,101092.10
2019-01-15T00:52:43.750Z,101090.41
2019-01-15T00:55:12.889Z,101097.80
2019-01-15T00:57:41.566Z,101095.77
2019-01-15T01:00:18.344Z,101099.12
2019-01-15T01:02:46.934Z,101096.97
2019-01-15T01:05:15.692Z,101100.12
2019-01-15T01:07:44.141Z,101099.13
2019-01-15T01:10:14.914Z,101108.97
2019-01-15T01:12:43.633Z,101114.59
2019-01-15T01:15:14.416Z,101114.83
2019-01-15T01:17:42.882Z,101115.53
2019-01-15T01:20:14.453Z,101116.62
2019-01-15T01:22:43.042Z,101114.47
2019-01-15T01:25:13.407Z,101114.63
2019-01-15T01:27:41.812Z,101094.38
2019-01-15T01:30:13.973Z,101115.22
2019-01-15T01:32:42.404Z,101119.36
2019-01-15T01:35:11.073Z,101126.77
2019-01-15T01:37:39.569Z,101127.35
2019-01-15T01:40:11.231Z,101123.95
2019-01-15T01:42:39.678Z,101119.58
2019-01-15T01:45:13.024Z,101124.69
2019-01-15T01:47:41.419Z,101120.10
2019-01-15T01:50:14.205Z,101119.39
2019-01-15T01:52:42.881Z,101118.24
2019-01-15T01:55:13.155Z,101115.55
2019-01-15T01:57:41.659Z,101119.97
2019-01-15T02:00:18.500Z,101116.43
2019-01-15T02:02:46.990Z,101119.34
2019-01-15T02:05:15.614Z,101115.31
2019-01-15T02:07:44.361Z,101118.89
2019-01-15T02:10:17.371Z,101119.58
2019-01-15T02:12:46.338Z,101115.53
2019-01-15T02:15:17.678Z,101116.98
2019-01-15T02:17:46.317Z,101122.05
2019-01-15T02:20:19.891Z,101125.50
2019-01-15T02:22:48.381Z,101121.22
2019-01-15T02:25:16.951Z,101121.22
2019-01-15T02:27:47.042Z,101123.90
2019-01-15T02:30:20.338Z,101128.23
2019-01-15T02:32:48.927Z,101127.77
2019-01-15T02:35:17.435Z,101129.98
2019-01-15T02:37:45.834Z,101132.50
2019-01-15T02:40:15.547Z,101135.55
2019-01-15T02:42:46.875Z,101136.70
2019-01-15T02:45:17.861Z,101143.36
2019-01-15T02:47:47.026Z,101144.56
2019-01-15T02:50:17.313Z,101141.73
2019-01-15T02:52:46.151Z,101147.98
2019-01-15T02:55:14.762Z,101143.28
2019-01-15T02:57:43.208Z,101141.67
2019-01-15T03:00:19.868Z,101136.53
2019-01-15T03:02:48.347Z,101138.45
2019-01-15T03:05:17.171Z,101140.91
2019-01-15T03:07:45.737Z,101139.31
2019-01-15T03:10:16.884Z,101135.50
2019-01-15T03:12:54.401Z,101139.34
2019-01-15T03:15:17.263Z,101138.07
2019-01-15T03:17:45.760Z,101131.59
2019-01-15T03:20:17.782Z,101131.48
2019-01-15T03:22:46.447Z,101121.93
2019-01-15T03:25:15.328Z,101114.61
2019-01-15T03:27:43.891Z,101116.58
2019-01-15T03:30:15.658Z,101112.80
2019-01-15T03:32:44.085Z,101118.78
2019-01-15T03:35:12.842Z,101127.80
2019-01-15T03:37:41.240Z,101127.80
2019-01-15T03:40:18.149Z,101124.72
2019-01-15T03:42:46.626Z,101124.30
2019-01-15T03:45:15.175Z,101114.97
2019-01-15T03:47:43.603Z,101114.13
2019-01-15T03:50:12.271Z,101109.66
2019-01-15T03:52:40.692Z,101108.34
2019-01-15T03:55:11.163Z,101108.42
2019-01-15T03:57:39.598Z,101106.06
2019-01-15T04:00:11.098Z,101103.30
2019-01-15T04:02:39.528Z,101102.67
2019-01-15T04:05:08.760Z,101094.81
2019-01-15T04:07:37.469Z,101099.51
2019-01-15T04:10:09.122Z,101093.53
2019-01-15T04:12:37.652Z,101091.34
2019-01-15T04:15:09.432Z,101085.63
2019-01-15T04:17:38.082Z,101090.27
2019-01-15T04:20:09.548Z,101103.56
2019-01-15T04:22:38.020Z,101101.31
2019-01-15T04:25:07.793Z,101101.50
2019-01-15T04:27:36.213Z,101105.08
2019-01-15T04:30:07.827Z,101111.16
2019-01-15T04:32:36.239Z,101111.66
2019-01-15T04:35:07.217Z,101114.43
2019-01-15T04:37:35.629Z,101111.00
2019-01-15T04:40:06.718Z,101120.05
2019-01-15T04:42:35.332Z,101122.66
2019-01-15T04:45:04.833Z,101120.55
2019-01-15T04:47:33.261Z,101111.37
2019-01-15T04:50:01.941Z,101114.28
2019-01-15T04:52:30.532Z,101103.83
2019-01-15T04:54:58.959Z,101100.25
2019-01-15T04:57:27.643Z,101084.63
2019-01-15T04:59:56.070Z,101086.87
2019-01-15T05:02:24.583Z,101082.33
2019-01-15T05:04:53.045Z,101087.29
2019-01-15T05:07:21.560Z,101089.06
2019-01-15T05:09:49.967Z,101089.05
2019-01-15T05:12:18.575Z,101096.77
2019-01-15T05:14:47.056Z,101085.88
2019-01-15T05:17:15.585Z,101091.64
2019-01-15T05:19:44.027Z,101093.34
2019-01-15T05:22:12.533Z,101089.64
2019-01-15T05:24:41.137Z,101095.30
2019-01-15T05:27:09.534Z,101090.82
2019-01-15T05:29:37.991Z,101096.12
2019-01-15T05:32:06.529Z,101095.09
2019-01-15T05:34:35.197Z,101094.56
2019-01-15T05:37:04.002Z,101085.77
2019-01-15T05:39:32.567Z,101081.84
2019-01-15T05:42:00.989Z,101084.08
2019-01-15T05:44:29.594Z,101092.88
2019-01-15T05:46:58.028Z,101086.02
2019-01-15T05:49:26.446Z,101083.62
2019-01-15T05:51:54.865Z,101095.74
2019-01-15T05:54:23.327Z,101087.87
2019-01-15T05:56:51.768Z,101079.08
2019-01-15T05:59:20.207Z,101077.22
2019-01-15T06:01:48.715Z,101085.25
2019-01-15T06:04:17.183Z,101076.48
2019-01-15T06:06:45.609Z,101078.67
2019-01-15T06:09:14.031Z,101071.19
2019-01-15T06:11:42.568Z,101077.88
2019-01-15T06:14:10.974Z,101078.76
2019-01-15T06:16:39.646Z,101080.64
2019-01-15T06:19:08.183Z,101069.59
2019-01-15T06:21:36.767Z,101069.86
2019-01-15T06:24:05.322Z,101058.88
2019-01-15T06:26:33.874Z,101056.94
2019-01-15T06:29:02.543Z,101068.41
2019-01-15T06:31:30.947Z,101066.42
2019-01-15T06:33:59.378Z,101067.09
2019-01-15T06:36:27.813Z,101074.28
2019-01-15T06:38:56.219Z,101072.89
2019-01-15T06:41:24.892Z,101072.75
2019-01-15T06:43:53.529Z,101077.61
2019-01-15T06:46:21.913Z,101077.64
2019-01-15T06:48:50.390Z,101076.95
2019-01-15T06:51:18.911Z,101082.01
2019-01-15T06:53:47.387Z,101075.80
2019-01-15T06:56:15.898Z,101079.80
2019-01-15T06:58:44.327Z,101071.98
2019-01-15T07:01:12.731Z,101082.45
2019-01-15T07:03:41.145Z,101081.70
2019-01-15T07:06:09.579Z,101091.02
2019-01-15T07:08:38.005Z,101091.64
2019-01-15T07:11:06.515Z,101092.41
2019-01-15T07:13:34.951Z,101106.58
2019-01-15T07:16:04.185Z,101106.42
2019-01-15T07:18:32.602Z,101103.06
2019-01-15T07:21:01.062Z,101096.12
2019-01-15T07:23:29.475Z,101109.69
2019-01-15T07:25:57.916Z,101119.06
2019-01-15T07:28:26.336Z,101121.91
2019-01-15T07:30:54.908Z,101124.98
2019-01-15T07:33:23.343Z,101136.73
2019-01-15T07:35:51.846Z,101139.97
2019-01-15T07:38:20.253Z,101143.73
2019-01-15T07:40:48.828Z,101138.56
2019-01-15T07:43:17.242Z,101142.72
2019-01-15T07:45:45.650Z,101131.52
2019-01-15T07:48:14.077Z,101125.78
2019-01-15T07:50:42.473Z,101123.78
2019-01-15T07:53:11.074Z,101122.30
2019-01-15T07:55:39.485Z,101117.50
2019-01-15T07:58:07.908Z,101115.56
2019-01-15T08:00:36.399Z,101126.04
2019-01-15T08:03:05.344Z,101128.28
2019-01-15T08:05:33.795Z,101121.48
2019-01-15T08:08:02.313Z,101126.28
2019-01-15T08:10:30.733Z,101127.89
2019-01-15T08:12:59.141Z,101120.23
2019-01-15T08:15:28.504Z,101121.80
2019-01-15T08:17:57.037Z,101118.64
2019-01-15T08:20:25.471Z,101120.16
2019-01-15T08:22:53.986Z,101114.87
2019-01-15T08:25:22.925Z,101114.90
2019-01-15T08:27:51.365Z,101120.84
2019-01-15T08:30:25.293Z,101121.64
2019-01-15T08:32:53.967Z,101123.52
2019-01-15T08:35:23.039Z,101128.30
2019-01-15T08:37:51.888Z,101124.49
2019-01-15T08:40:20.676Z,101124.20
2019-01-15T08:42:49.221Z,101107.34
2019-01-15T08:45:18.928Z,101117.64
2019-01-15T08:47:52.154Z,101124.23
2019-01-15T08:50:26.027Z,101127.88
2019-01-15T08:52:54.654Z,101126.10
2019-01-15T08:55:23.208Z,101114.84
2019-01-15T08:57:51.774Z,101111.37
2019-01-15T09:00:20.231Z,101103.86
2019-01-15T09:02:48.691Z,101116.81
2019-01-15T09:05:17.173Z,101116.99
2019-01-15T09:07:45.756Z,101117.40
2019-01-15T09:10:18.459Z,101119.65
2019-01-15T09:12:47.245Z,101120.66
2019-01-15T09:15:20.995Z,101123.12
2019-01-15T09:17:49.572Z,101123.88
2019-01-15T09:20:20.478Z,101118.52
2019-01-15T09:22:49.137Z,101115.22
2019-01-15T09:25:17.702Z,101117.94
2019-01-15T09:27:46.447Z,101119.43
2019-01-15T09:30:17.082Z,101115.13
2019-01-15T09:32:45.830Z,101112.30
2019-01-15T09:35:14.613Z,101126.28
2019-01-15T09:37:43.935Z,101131.06
2019-01-15T09:40:20.931Z,101129.94
2019-01-15T09:42:49.688Z,101123.94
2019-01-15T09:45:20.697Z,101119.16
2019-01-15T09:47:50.883Z,101127.79
2019-01-15T09:50:19.686Z,101121.30
2019-01-15T09:52:48.913Z,101116.81
2019-01-15T09:55:17.415Z,101111.73
2019-01-15T09:57:45.918Z,101107.98
2019-01-15T10:00:17.358Z,101099.91
2019-01-15T10:02:45.941Z,101103.62
2019-01-15T10:05:14.461Z,101099.78
2019-01-15T10:07:42.921Z,101095.75
2019-01-15T10:10:16.548Z,101096.89
2019-01-15T10:12:45.027Z,101097.55
2019-01-15T10:15:16.436Z,101093.69
2019-01-15T10:17:45.021Z,101098.06
2019-01-15T10:20:15.728Z,101095.83
2019-01-15T10:22:44.234Z,101083.74
2019-01-15T10:25:14.414Z,101076.02
2019-01-15T10:27:43.723Z,101073.08
2019-01-15T10:30:19.830Z,101066.42
2019-01-15T10:32:53.999Z,101064.63
2019-01-15T10:35:25.481Z,101056.41
2019-01-15T10:37:53.885Z,101072.21
2019-01-15T10:40:22.323Z,101066.58
2019-01-15T10:42:50.728Z,101064.42
2019-01-15T10:45:19.156Z,101062.88
2019-01-15T10:47:47.587Z,101062.41
2019-01-15T10:50:16.274Z,101065.60
2019-01-15T10:52:44.735Z,101070.27
2019-01-15T10:55:13.235Z,101066.55
2019-01-15T10:57:41.715Z,101058.98
2019-01-15T11:00:13.170Z,101059.14
2019-01-15T11:02:41.598Z,101059.05
2019-01-15T11:05:12.177Z,101056.64
2019-01-15T11:07:40.587Z,101061.11
2019-01-15T11:10:12.093Z,101060.83
2019-01-15T11:12:40.587Z,101055.10
2019-01-15T11:15:09.603Z,101055.00
2019-01-15T11:17:38.063Z,101059.23
2019-01-15T11:20:09.511Z,101050.63
2019-01-15T11:22:37.934Z,101052.84
2019-01-15T11:25:07.961Z,101043.86
2019-01-15T11:27:36.315Z,101052.70
2019-01-15T11:30:08.155Z,101052.39
2019-01-15T11:32:36.557Z,101046.12
2019-01-15T11:35:07.606Z,101034.55
2019-01-15T11:37:36.099Z,101038.08
2019-01-15T11:40:07.733Z,101029.07
2019-01-15T11:42:36.240Z,101020.00
2019-01-15T11:45:07.360Z,101017.74
2019-01-15T11:47:35.832Z,101016.32
2019-01-15T11:50:07.197Z,101015.69
2019-01-15T11:52:35.611Z,101014.38
2019-01-15T11:55:05.292Z,101009.21
2019-01-15T11:57:33.691Z,101007.83
2019-01-15T12:00:02.433Z,101009.34
2019-01-15T12:02:32.543Z,101009.72
2019-01-15T12:05:02.586Z,101007.09
2019-01-15T12:07:32.665Z,100995.14
2019-01-15T12:10:05.584Z,100991.19
2019-01-15T12:12:41.374Z,100995.20
2019-01-15T12:15:14.281Z,100989.97
2019-01-15T12:17:47.417Z,100989.50
2019-01-15T12:20:17.512Z,100989.09
2019-01-15T12:23:02.736Z,100989.20
2019-01-15T12:25:32.811Z,100987.58
2019-01-15T12:28:02.908Z,100990.58
2019-01-15T12:30:35.560Z,100986.56
2019-01-15T12:33:23.544Z,100981.43
2019-01-15T12:36:02.857Z,100978.09
2019-01-15T12:38:38.775Z,100974.92
2019-01-15T12:41:17.819Z,100977.92
2019-01-15T12:44:06.333Z,100981.06
2019-01-15T12:46:51.538Z,100980.58
2019-01-15T12:49:21.607Z,100979.54
2019-01-15T12:52:03.784Z,100974.50
2019-01-15T12:54:50.301Z,100973.08
2019-01-15T12:57:26.116Z,100970.50
2019-01-15T12:59:56.184Z,100970.50
2019-01-15T13:02:28.794Z,100964.34
2019-01-15T13:05:15.016Z,100959.59
2019-01-15T13:07:48.095Z,100960.30
2019-01-15T13:10:26.822Z,100951.98
2019-01-15T13:12:56.904Z,100962.42
2019-01-15T13:15:34.781Z,100957.62
2019-01-15T13:18:04.491Z,100955.69
2019-01-15T13:20:34.800Z,100958.78
2019-01-15T13:23:11.076Z,100958.88
2019-01-15T13:25:43.927Z,100960.02
2019-01-15T13:28:23.415Z,100951.34
2019-01-15T13:31:09.756Z,100959.14
2019-01-15T13:33:39.832Z,100953.59
2019-01-15T13:36:10.254Z,100954.91
2019-01-15T13:38:43.021Z,100949.53
2019-01-15T13:41:25.526Z,100958.28
2019-01-15T13:43:55.609Z,100949.77
2019-01-15T13:46:41.880Z,100956.51
2019-01-15T13:49:11.999Z,100950.89
2019-01-15T13:51:44.775Z,100950.13
2019-01-15T13:54:14.899Z,100952.20
2019-01-15T13:56:47.385Z,100945.13
2019-01-15T13:59:20.532Z,100949.08
2019-01-15T14:01:56.339Z,100946.90
2019-01-15T14:04:26.416Z,100945.23
2019-01-15T14:06:56.478Z,100945.52
2019-01-15T14:09:38.217Z,100944.77
2019-01-15T14:12:23.036Z,100937.52
2019-01-15T14:14:56.280Z,100939.39
2019-01-15T14:17:35.437Z,100939.81
2019-01-15T14:20:16.261Z,100934.23
2019-01-15T14:23:02.531Z,100932.70
2019-01-15T14:25:35.400Z,100931.84
2019-01-15T14:28:05.553Z,100924.89
2019-01-15T14:30:51.969Z,100929.79
2019-01-15T14:33:31.102Z,100924.86
2019-01-15T14:36:01.146Z,100921.98
2019-01-15T14:38:31.297Z,100923.41
2019-01-15T14:41:07.354Z,100922.70
2019-01-15T14:43:53.364Z,100921.19
2019-01-15T14:46:32.459Z,100909.64
2019-01-15T14:49:02.536Z,100912.01
2019-01-15T14:51:48.047Z,100908.92
2019-01-15T14:54:24.065Z,100912.38
2019-01-15T14:56:54.146Z,100907.48
2019-01-15T14:59:33.184Z,100902.51
2019-01-15T15:02:19.563Z,100898.64
2019-01-15T15:04:49.672Z,100900.08
2019-01-15T15:07:28.459Z,100901.12
2019-01-15T15:10:13.853Z,100897.41
2019-01-15T15:12:49.585Z,100891.05
2019-01-15T15:15:22.753Z,100896.42
2019-01-15T15:17:55.978Z,100909.97
2019-01-15T15:20:26.051Z,100899.06
2019-01-15T15:23:11.188Z,100897.74
2019-01-15T15:25:50.323Z,100898.46
2019-01-15T15:28:26.506Z,100899.06
2019-01-15T15:31:12.985Z,100894.63
2019-01-15T15:33:43.139Z,100897.80
2019-01-15T15:36:21.988Z,100909.91
2019-01-15T15:38:54.491Z,100905.06
2019-01-15T15:41:27.326Z,100899.77
2019-01-15T15:44:09.179Z,100906.02
2019-01-15T15:46:48.205Z,100900.04
2019-01-15T15:49:34.340Z,100896.11
2019-01-15T15:52:04.403Z,100905.64
2019-01-15T15:54:50.762Z,100893.09
2019-01-15T15:57:23.279Z,100900.98
2019-01-15T16:00:02.168Z,100902.04
2019-01-15T16:02:41.001Z,100906.38
2019-01-15T16:05:17.330Z,100908.42
2019-01-15T16:08:05.639Z,100922.91
2019-01-15T16:10:44.552Z,100908.65
2019-01-15T16:13:33.157Z,100916.98
2019-01-15T16:16:19.601Z,100918.71
2019-01-15T16:18:58.786Z,100912.55
2019-01-15T16:21:28.845Z,100919.55
2019-01-15T16:24:15.396Z,100919.45
2019-01-15T16:26:48.177Z,100913.55
2019-01-15T16:29:18.268Z,100917.16
2019-01-15T16:31:54.544Z,100916.81
2019-01-15T16:34:24.582Z,100909.02
2019-01-15T16:37:12.855Z,100914.08
2019-01-15T16:39:59.144Z,100916.50
2019-01-15T16:42:31.717Z,100917.58
2019-01-15T16:45:13.919Z,100917.58
2019-01-15T16:47:46.849Z,100910.58
2019-01-15T16:50:25.919Z,100912.76
2019-01-15T16:53:12.450Z,100911.81
2019-01-15T16:55:48.481Z,100913.02
2019-01-15T16:58:34.637Z,100906.55
2019-01-15T17:01:04.739Z,100903.80
2019-01-15T17:03:34.839Z,100900.98
2019-01-15T17:06:07.342Z,100908.59
2019-01-15T17:08:37.444Z,100906.28
2019-01-15T17:11:13.491Z,100901.95
2019-01-15T17:14:00.018Z,100907.04
2019-01-15T17:16:33.682Z,100904.77
2019-01-15T17:21:45.492Z,100906.75
2019-01-15T17:24:25.008Z,100910.62
2019-01-15T17:27:03.969Z,100906.16
2019-01-15T17:29:34.071Z,100906.09
2019-01-15T17:32:04.154Z,100912.94
2019-01-15T17:34:36.736Z,100909.83
2019-01-15T17:37:23.133Z,100909.00
2019-01-15T17:40:08.305Z,100896.87
2019-01-15T17:42:41.435Z,100899.85
2019-01-15T17:45:29.311Z,100904.98
2019-01-15T17:48:05.228Z,100904.93
2019-01-15T17:50:50.474Z,100893.58
2019-01-15T17:53:23.494Z,100901.02
2019-01-15T17:56:09.693Z,100902.80
2019-01-15T17:58:55.913Z,100911.83
2019-01-15T18:01:26.008Z,100901.94
2019-01-15T18:03:56.096Z,100899.38
2019-01-15T18:06:26.184Z,100903.66
2019-01-15T18:08:56.289Z,100903.62
2019-01-15T18:11:41.600Z,100906.96
2019-01-15T18:14:26.949Z,100909.59
2019-01-15T18:16:52.927Z,100912.02
2019-01-15T18:19:38.219Z,100910.91
2019-01-15T18:22:20.941Z,100910.89
2019-01-15T18:24:54.331Z,100908.73
2019-01-15T18:27:24.576Z,100909.09
2019-01-15T18:30:13.743Z,100908.28
2019-01-15T18:32:44.032Z,100911.08
2019-01-15T18:35:14.331Z,100908.99
2019-01-15T18:37:44.591Z,100912.37
2019-01-15T18:40:20.901Z,100913.78
2019-01-15T18:42:51.059Z,100908.25
2019-01-15T18:45:36.517Z,100914.53
2019-01-15T18:48:09.768Z,100916.71
2019-01-15T18:50:58.438Z,100912.68
2019-01-15T18:53:47.119Z,100913.12
2019-01-15T18:56:22.935Z,100907.09
2019-01-15T18:59:09.522Z,100910.41
2019-01-15T19:01:42.608Z,100907.41
2019-01-15T19:04:28.519Z,100907.94
2019-01-15T19:07:10.660Z,100906.55
2019-01-15T19:09:46.928Z,100905.45
2019-01-15T19:12:28.942Z,100903.02
2019-01-15T19:15:01.927Z,100906.77
2019-01-15T19:17:32.215Z,100903.91
2019-01-15T19:20:05.248Z,100912.86
2019-01-15T19:22:38.538Z,100910.05
2019-01-15T19:25:14.831Z,100902.33
2019-01-15T19:27:45.045Z,100899.22
2019-01-15T19:30:20.655Z,100898.92
2019-01-15T19:33:10.953Z,100900.91
2019-01-15T19:35:41.255Z,100903.38
2019-01-15T19:38:30.885Z,100902.82
2019-01-15T19:41:04.159Z,100900.91
2019-01-15T19:43:34.357Z,100902.34
2019-01-15T19:46:06.171Z,100903.08
2019-01-15T19:48:39.322Z,100902.20
2019-01-15T19:51:15.652Z,100903.80
2019-01-15T19:53:52.017Z,100899.59
2019-01-15T19:56:25.917Z,100896.50
2019-01-15T19:58:59.054Z,100902.82
2019-01-15T20:01:33.653Z,100898.46
2019-01-15T20:04:03.934Z,100898.01
2019-01-15T20:06:43.244Z,100900.75
2019-01-15T20:09:20.751Z,100902.20
2019-01-15T20:12:03.198Z,100899.50
2019-01-15T20:14:50.019Z,100894.81
2019-01-15T20:17:36.557Z,100897.23
2019-01-15T20:20:25.521Z,100897.13
2019-01-15T20:23:13.958Z,100900.88
2019-01-15T20:25:53.859Z,100902.14
2019-01-15T20:28:29.726Z,100908.52
2019-01-15T20:31:02.622Z,100905.13
2019-01-15T20:33:35.515Z,100906.65
2019-01-15T20:36:22.553Z,100899.88
2019-01-15T20:38:52.827Z,100902.72
2019-01-15T20:41:34.274Z,100896.20
2019-01-15T20:44:20.861Z,100889.32
2019-01-15T20:47:03.065Z,100893.75
2019-01-15T20:49:51.548Z,100887.19
2019-01-15T20:52:40.086Z,100888.03
2019-01-15T20:55:12.405Z,100889.23
2019-01-15T20:57:51.638Z,100886.58
2019-01-15T21:00:23.464Z,100887.64
2019-01-15T21:02:53.792Z,100887.27
2019-01-15T21:05:26.865Z,100882.47
2019-01-15T21:07:57.042Z,100880.52
2019-01-15T21:10:45.090Z,100881.13
2019-01-15T21:13:34.115Z,100890.87
2019-01-15T21:16:04.487Z,100892.33
2019-01-15T21:18:44.908Z,100887.34
2019-01-15T21:21:15.164Z,100888.80
2019-01-15T21:23:45.360Z,100887.55
2019-01-15T21:26:21.610Z,100885.84
2019-01-15T21:29:08.251Z,100883.69
2019-01-15T21:31:38.524Z,100884.61
2019-01-15T21:34:14.752Z,100882.92
2019-01-15T21:37:00.106Z,100885.31
2019-01-15T21:39:39.094Z,100892.00
2019-01-15T21:42:09.399Z,100889.27
2019-01-15T21:44:55.903Z,100879.68
2019-01-15T21:47:32.104Z,100882.92
2019-01-15T21:50:05.422Z,100879.16
2019-01-15T21:52:54.070Z,100881.98
2019-01-15T21:55:31.521Z,100876.09
2019-01-15T21:58:04.120Z,100881.27
2019-01-15T22:00:50.784Z,100880.29
2019-01-15T22:03:30.194Z,100875.44
2019-01-15T22:06:09.419Z,100875.07
2019-01-15T22:08:57.640Z,100877.58
2019-01-15T22:11:27.809Z,100870.59
2019-01-15T22:14:00.594Z,100874.95
2019-01-15T22:16:47.447Z,100879.02
2019-01-15T22:19:23.329Z,100873.91
2019-01-15T22:21:53.479Z,100874.36
2019-01-15T22:24:26.494Z,100872.13
2019-01-15T22:27:12.566Z,100863.75
2019-01-15T22:29:42.648Z,100865.38
2019-01-15T22:32:12.771Z,100861.25
2019-01-15T22:34:51.596Z,100857.91
2019-01-15T22:37:21.651Z,100851.98
2019-01-15T22:39:51.726Z,100854.91
2019-01-15T22:42:21.767Z,100843.83
2019-01-15T22:44:57.604Z,100849.11
2019-01-15T22:47:30.405Z,100851.45
2019-01-15T22:50:03.188Z,100842.61
2019-01-15T22:52:39.438Z,100851.04
2019-01-15T22:55:21.644Z,100850.91
2019-01-15T22:58:00.458Z,100843.19
2019-01-15T23:00:49.639Z,100841.50
2019-01-15T23:03:19.970Z,100842.16
2019-01-15T23:06:01.813Z,100843.05
2019-01-15T23:08:31.851Z,100832.89
2019-01-15T23:11:04.605Z,100836.66
2019-01-15T23:13:37.368Z,100839.42
2019-01-15T23:16:13.638Z,100833.47
2019-01-15T23:21:17.964Z,100829.65
2019-01-15T23:24:04.566Z,100825.41
2019-01-15T23:26:34.620Z,100825.97
2019-01-15T23:29:10.345Z,100821.28
2019-01-15T23:31:52.386Z,100825.70
2019-01-15T23:34:22.478Z,100819.84
2019-01-15T23:36:52.544Z,100823.34
2019-01-15T23:39:28.099Z,100825.87
2019-01-15T23:42:01.180Z,100816.08
2019-01-15T23:44:40.161Z,100816.01
2019-01-15T23:47:18.989Z,100815.78
2019-01-15T23:50:03.849Z,100811.46
2019-01-15T23:52:33.912Z,100806.28
2019-01-15T23:55:06.695Z,100811.58
2019-01-15T23:57:48.930Z,100801.86
